createdAt,value
2023-04-25T00:00:23.120Z,6.70
2023-04-25T00:01:26.458Z,6.70
2023-04-25T00:02:29.604Z,6.70
2023-04-25T00:03:33.629Z,6.70
2023-04-25T00:04:36.518Z,6.70
2023-04-25T00:05:40.171Z,6.70
2023-04-25T00:06:42.752Z,6.70
2023-04-25T00:07:46.945Z,6.70
2023-04-25T00:08:49.910Z,6.70
2023-04-25T00:09:53.359Z,6.70
2023-04-25T00:10:57.727Z,6.70
2023-04-25T00:12:02.456Z,6.70
2023-04-25T00:13:05.527Z,6.70
2023-04-25T00:14:08.896Z,6.70
2023-04-25T00:15:12.585Z,6.70
2023-04-25T00:16:16.598Z,6.70
2023-04-25T00:17:20.307Z,6.70
2023-04-25T00:18:24.074Z,6.70
2023-04-25T00:19:27.796Z,6.70
2023-04-25T00:20:31.915Z,6.70
2023-04-25T00:21:34.354Z,6.70
2023-04-25T00:22:38.462Z,6.70
2023-04-25T00:23:41.788Z,6.70
2023-04-25T00:24:44.165Z,6.70
2023-04-25T00:25:48.635Z,6.60
2023-04-25T00:26:52.694Z,6.60
2023-04-25T00:27:57.341Z,6.60
2023-04-25T00:29:00.502Z,6.60
2023-04-25T00:30:04.432Z,6.60
2023-04-25T00:31:06.923Z,6.60
2023-04-25T00:32:10.834Z,6.50
2023-04-25T00:33:13.620Z,6.50
2023-04-25T00:34:17.262Z,6.50
2023-04-25T00:35:19.922Z,6.50
2023-04-25T00:36:23.307Z,6.40
2023-04-25T00:37:26.093Z,6.40
2023-04-25T00:38:29.474Z,6.40
2023-04-25T00:39:31.899Z,6.40
2023-04-25T00:40:35.534Z,6.40
2023-04-25T00:41:38.111Z,6.30
2023-04-25T00:42:43.592Z,6.30
2023-04-25T00:43:47.136Z,6.30
2023-04-25T00:44:50.729Z,6.30
2023-04-25T00:45:54.277Z,6.20
2023-04-25T00:46:57.976Z,6.20
2023-04-25T00:48:00.930Z,6.20
2023-04-25T00:49:05.114Z,6.20
2023-04-25T00:50:10.567Z,6.10
2023-04-25T00:51:22.408Z,6.10
2023-04-25T00:52:26.229Z,6.10
2023-04-25T00:53:31.266Z,6.10
2023-04-25T00:54:35.197Z,6.10
2023-04-25T00:55:37.920Z,6.00
2023-04-25T00:56:41.704Z,6.00
2023-04-25T00:57:45.492Z,6.00
2023-04-25T00:58:49.824Z,6.00
2023-04-25T00:59:54.028Z,6.00
2023-04-25T01:00:59.491Z,6.00
2023-04-25T01:02:03.392Z,5.90
2023-04-25T01:03:05.996Z,5.90
2023-04-25T01:04:09.575Z,5.90
2023-04-25T01:05:13.027Z,5.90
2023-04-25T01:06:16.486Z,5.90
2023-04-25T01:07:19.330Z,5.80
2023-04-25T01:08:25.869Z,5.80
2023-04-25T01:09:29.842Z,5.80
2023-04-25T01:10:32.335Z,5.80
2023-04-25T01:11:35.779Z,5.80
2023-04-25T01:12:38.314Z,5.70
2023-04-25T01:13:43.275Z,5.70
2023-04-25T01:14:46.082Z,5.70
2023-04-25T01:15:52.490Z,5.70
2023-04-25T01:16:57.036Z,5.70
2023-04-25T01:18:03.076Z,5.70
2023-04-25T01:19:10.055Z,5.60
2023-04-25T01:20:16.025Z,5.60
2023-04-25T01:21:20.421Z,5.60
2023-04-25T01:22:25.039Z,5.60
2023-04-25T01:23:27.875Z,5.60
2023-04-25T01:24:31.587Z,5.60
2023-04-25T01:25:34.827Z,5.60
2023-04-25T01:26:40.800Z,5.50
2023-04-25T01:27:43.642Z,5.50
2023-04-25T01:28:47.677Z,5.50
2023-04-25T01:29:51.489Z,5.50
2023-04-25T01:30:56.469Z,5.50
2023-04-25T01:32:00.216Z,5.50
2023-04-25T01:33:06.258Z,5.40
2023-04-25T01:34:08.772Z,5.50
2023-04-25T01:35:14.421Z,5.40
2023-04-25T01:36:17.682Z,5.40
2023-04-25T01:37:23.049Z,5.40
2023-04-25T01:38:25.646Z,5.40
2023-04-25T01:39:29.700Z,5.40
2023-04-25T01:40:32.742Z,5.40
2023-04-25T01:41:36.511Z,5.30
2023-04-25T01:42:42.391Z,5.30
2023-04-25T01:43:46.573Z,5.30
2023-04-25T01:44:49.117Z,5.30
2023-04-25T01:45:52.921Z,5.30
2023-04-25T01:46:55.773Z,5.30
2023-04-25T01:48:00.460Z,5.30
2023-04-25T01:49:03.579Z,5.20
2023-04-25T01:50:09.846Z,5.20
2023-04-25T01:51:14.145Z,5.20
2023-04-25T01:52:17.630Z,5.20
2023-04-25T01:53:21.731Z,5.20
2023-04-25T01:54:25.765Z,5.20
2023-04-25T01:55:28.313Z,5.20
2023-04-25T01:56:42.893Z,5.20
2023-04-25T01:57:46.936Z,5.10
2023-04-25T01:58:50.821Z,5.10
2023-04-25T02:00:16.641Z,5.10
2023-04-25T02:01:20.279Z,5.10
2023-04-25T02:02:35.786Z,5.10
2023-04-25T02:03:39.780Z,5.10
2023-04-25T02:04:46.752Z,5.10
2023-04-25T02:05:50.912Z,5.10
2023-04-25T02:06:53.394Z,5.10
2023-04-25T02:07:56.891Z,5.10
2023-04-25T02:09:06.141Z,5.10
2023-04-25T02:10:10.785Z,5.10
2023-04-25T02:11:26.151Z,5.10
2023-04-25T02:12:51.399Z,5.10
2023-04-25T02:14:05.686Z,5.10
2023-04-25T02:15:23.148Z,5.10
2023-04-25T02:16:31.729Z,5.10
2023-04-25T02:17:36.063Z,5.10
2023-04-25T02:18:40.134Z,5.10
2023-04-25T02:19:42.806Z,5.00
2023-04-25T02:20:47.088Z,5.00
2023-04-25T02:21:49.473Z,5.00
2023-04-25T02:22:53.383Z,5.00
2023-04-25T02:23:56.570Z,5.00
2023-04-25T02:25:01.381Z,5.00
2023-04-25T02:26:03.834Z,5.00
2023-04-25T02:27:07.298Z,5.00
2023-04-25T02:28:11.490Z,5.00
2023-04-25T02:29:16.268Z,5.00
2023-04-25T02:30:18.850Z,5.00
2023-04-25T02:31:22.345Z,5.00
2023-04-25T02:32:27.965Z,5.00
2023-04-25T02:33:31.342Z,5.00
2023-04-25T02:34:33.962Z,5.00
2023-04-25T02:35:38.004Z,5.00
2023-04-25T02:36:40.725Z,5.10
2023-04-25T02:37:45.000Z,5.10
2023-04-25T02:38:48.602Z,5.10
2023-04-25T02:39:52.107Z,5.10
2023-04-25T02:40:56.480Z,5.10
2023-04-25T02:42:03.714Z,5.10
2023-04-25T02:43:06.051Z,5.10
2023-04-25T02:44:09.411Z,5.10
2023-04-25T02:45:12.285Z,5.10
2023-04-25T02:46:16.515Z,5.10
2023-04-25T02:47:23.057Z,5.10
2023-04-25T02:48:27.186Z,5.10
2023-04-25T02:49:29.756Z,5.10
2023-04-25T02:50:33.261Z,5.20
2023-04-25T02:51:36.241Z,5.20
2023-04-25T02:52:39.963Z,5.20
2023-04-25T02:53:50.405Z,5.20
2023-04-25T02:54:54.066Z,5.20
2023-04-25T02:55:59.414Z,5.20
2023-04-25T02:57:03.425Z,5.20
2023-04-25T02:58:11.412Z,5.20
2023-04-25T02:59:21.391Z,5.30
2023-04-25T03:00:23.739Z,5.30
2023-04-25T03:01:27.319Z,5.30
2023-04-25T03:02:30.072Z,5.30
2023-04-25T03:03:33.754Z,5.30
2023-04-25T03:04:36.361Z,5.30
2023-04-25T03:05:39.741Z,5.30
2023-04-25T03:06:42.640Z,5.40
2023-04-25T03:07:46.772Z,5.40
2023-04-25T03:08:49.258Z,5.40
2023-04-25T03:09:52.634Z,5.40
2023-04-25T03:10:56.564Z,5.40
2023-04-25T03:12:01.490Z,5.40
2023-04-25T03:13:04.139Z,5.40
2023-04-25T03:14:07.625Z,5.40
2023-04-25T03:15:11.108Z,5.40
2023-04-25T03:16:14.492Z,5.40
2023-04-25T03:17:17.059Z,5.40
2023-04-25T03:18:20.579Z,5.40
2023-04-25T03:19:23.257Z,5.40
2023-04-25T03:20:26.633Z,5.50
2023-04-25T03:21:29.047Z,5.50
2023-04-25T03:22:32.371Z,5.50
2023-04-25T03:23:34.821Z,5.50
2023-04-25T03:24:38.313Z,5.50
2023-04-25T03:25:40.714Z,5.50
2023-04-25T03:26:44.428Z,5.50
2023-04-25T03:27:48.170Z,5.50
2023-04-25T03:28:51.667Z,5.50
2023-04-25T03:29:54.672Z,5.50
2023-04-25T03:30:58.107Z,5.50
2023-04-25T03:32:00.612Z,5.50
2023-04-25T03:33:04.112Z,5.50
2023-04-25T03:34:06.472Z,5.50
2023-04-25T03:35:10.645Z,5.50
2023-04-25T03:36:14.132Z,5.50
2023-04-25T03:37:16.525Z,5.60
2023-04-25T03:38:19.962Z,5.60
2023-04-25T03:39:22.528Z,5.60
2023-04-25T03:40:28.231Z,5.60
2023-04-25T03:41:50.261Z,5.60
2023-04-25T03:42:55.779Z,5.60
2023-04-25T03:43:59.777Z,5.60
2023-04-25T03:45:03.151Z,5.60
2023-04-25T03:46:07.102Z,5.60
2023-04-25T03:47:09.476Z,5.60
2023-04-25T03:48:13.696Z,5.60
2023-04-25T03:49:19.515Z,5.60
2023-04-25T03:50:33.242Z,5.60
2023-04-25T03:51:37.173Z,5.60
2023-04-25T03:52:39.607Z,5.60
2023-04-25T03:53:42.953Z,5.60
2023-04-25T03:54:52.047Z,5.60
2023-04-25T03:55:56.304Z,5.60
2023-04-25T03:56:59.878Z,5.60
2023-04-25T03:58:05.973Z,5.60
2023-04-25T03:59:09.904Z,5.60
2023-04-25T04:00:14.208Z,5.60
2023-04-25T04:01:17.523Z,5.60
2023-04-25T04:02:21.113Z,5.60
2023-04-25T04:03:24.192Z,5.60
2023-04-25T04:04:28.490Z,5.60
2023-04-25T04:05:31.085Z,5.60
2023-04-25T04:06:34.996Z,5.60
2023-04-25T04:07:47.203Z,5.60
2023-04-25T04:08:50.661Z,5.60
2023-04-25T04:09:53.518Z,5.60
2023-04-25T04:11:02.778Z,5.60
2023-04-25T04:12:06.132Z,5.60
2023-04-25T04:13:11.774Z,5.60
2023-04-25T04:14:14.118Z,5.50
2023-04-25T04:15:21.422Z,5.50
2023-04-25T04:16:24.734Z,5.50
2023-04-25T04:17:28.359Z,5.50
2023-04-25T04:18:30.784Z,5.50
2023-04-25T04:19:34.416Z,5.50
2023-04-25T04:20:45.352Z,5.50
2023-04-25T04:21:49.002Z,5.50
2023-04-25T04:22:51.920Z,5.40
2023-04-25T04:23:56.346Z,5.40
2023-04-25T04:24:58.942Z,5.40
2023-04-25T04:26:20.889Z,5.40
2023-04-25T04:27:41.578Z,5.40
2023-04-25T04:29:09.655Z,5.40
2023-04-25T04:30:26.418Z,5.40
2023-04-25T04:31:34.331Z,5.30
2023-04-25T04:32:38.773Z,5.30
2023-04-25T04:33:42.533Z,5.30
2023-04-25T04:34:45.610Z,5.30
2023-04-25T04:35:54.634Z,5.30
2023-04-25T04:36:57.772Z,5.30
2023-04-25T04:38:02.217Z,5.30
2023-04-25T04:39:10.145Z,5.30
2023-04-25T04:40:21.600Z,5.30
2023-04-25T04:41:43.912Z,5.30
2023-04-25T04:43:11.552Z,5.30
2023-04-25T04:44:21.202Z,5.30
2023-04-25T04:45:50.984Z,5.30
2023-04-25T04:47:07.264Z,5.30
2023-04-25T04:48:37.405Z,5.30
2023-04-25T04:49:54.855Z,5.30
2023-04-25T04:51:09.173Z,5.40
2023-04-25T04:52:21.046Z,5.40
2023-04-25T04:53:38.323Z,5.40
2023-04-25T04:55:12.759Z,5.40
2023-04-25T04:56:39.814Z,5.40
2023-04-25T04:58:02.505Z,5.40
2023-04-25T04:59:08.600Z,5.50
2023-04-25T05:00:35.791Z,5.50
2023-04-25T05:01:49.718Z,5.50
2023-04-25T05:03:16.266Z,5.50
2023-04-25T05:04:43.410Z,5.50
2023-04-25T05:06:22.052Z,5.60
2023-04-25T05:07:43.835Z,5.60
2023-04-25T05:09:16.049Z,5.60
2023-04-25T05:10:31.406Z,5.60
2023-04-25T05:11:40.773Z,5.60
2023-04-25T05:12:55.985Z,5.60
2023-04-25T05:14:18.046Z,5.60
2023-04-25T05:15:35.738Z,5.60
2023-04-25T05:16:47.101Z,5.70
2023-04-25T05:18:16.686Z,5.70
2023-04-25T05:19:40.853Z,5.70
2023-04-25T05:21:16.312Z,5.80
2023-04-25T05:22:27.332Z,5.80
2023-04-25T05:23:56.907Z,5.80
2023-04-25T05:25:18.781Z,5.80
2023-04-25T05:26:40.781Z,5.90
2023-04-25T05:28:09.898Z,5.90
2023-04-25T05:29:34.366Z,6.00
2023-04-25T05:30:45.516Z,6.00
2023-04-25T05:32:04.595Z,6.00
2023-04-25T05:33:08.804Z,6.10
2023-04-25T05:34:11.236Z,6.10
2023-04-25T05:35:27.697Z,6.10
2023-04-25T05:36:30.150Z,6.20
2023-04-25T05:37:33.889Z,6.20
2023-04-25T05:38:46.644Z,6.30
2023-04-25T05:39:58.993Z,6.30
2023-04-25T05:41:21.380Z,6.40
2023-04-25T05:42:30.606Z,6.40
2023-04-25T05:43:58.380Z,6.50
2023-04-25T05:45:08.292Z,6.60
2023-04-25T05:46:19.973Z,6.60
2023-04-25T05:47:42.152Z,6.60
2023-04-25T05:48:58.658Z,6.70
2023-04-25T05:50:20.262Z,6.80
2023-04-25T05:51:30.792Z,6.80
2023-04-25T05:52:42.169Z,6.80
2023-04-25T05:53:54.915Z,6.90
2023-04-25T05:54:57.682Z,6.90
2023-04-25T05:56:01.153Z,7.00
2023-04-25T05:57:04.891Z,7.10
2023-04-25T05:58:08.904Z,7.10
2023-04-25T05:59:11.524Z,7.10
2023-04-25T06:00:17.109Z,7.20
2023-04-25T06:01:25.699Z,7.20
2023-04-25T06:02:29.316Z,7.30
2023-04-25T06:03:32.577Z,7.30
2023-04-25T06:04:36.296Z,7.40
2023-04-25T06:05:38.974Z,7.40
2023-04-25T06:06:42.308Z,7.50
2023-04-25T06:07:44.760Z,7.50
2023-04-25T06:08:48.263Z,7.50
2023-04-25T06:09:51.006Z,7.60
2023-04-25T06:10:54.880Z,7.60
2023-04-25T06:11:58.719Z,7.60
2023-04-25T06:13:02.095Z,7.70
2023-04-25T06:14:07.237Z,7.70
2023-04-25T06:15:24.365Z,7.90
2023-04-25T06:16:32.463Z,8.00
2023-04-25T06:17:34.928Z,8.20
2023-04-25T06:18:38.628Z,8.50
2023-04-25T06:19:40.986Z,8.80
2023-04-25T06:20:44.426Z,9.10
2023-04-25T06:21:46.998Z,9.50
2023-04-25T06:22:50.518Z,9.90
2023-04-25T06:23:53.355Z,10.30
2023-04-25T06:25:01.154Z,10.80
2023-04-25T06:26:04.688Z,11.20
2023-04-25T06:27:09.996Z,11.60
2023-04-25T06:28:12.309Z,12.10
2023-04-25T06:29:15.658Z,12.50
2023-04-25T06:30:23.361Z,13.00
2023-04-25T06:31:29.955Z,13.40
2023-04-25T06:32:35.294Z,13.90
2023-04-25T06:33:38.671Z,14.40
2023-04-25T06:34:41.187Z,14.80
2023-04-25T06:35:44.672Z,15.20
2023-04-25T06:36:50.063Z,15.60
2023-04-25T06:37:52.961Z,16.00
2023-04-25T06:38:59.036Z,16.40
2023-04-25T06:40:03.394Z,16.80
2023-04-25T06:41:06.843Z,17.00
2023-04-25T06:42:12.780Z,17.30
2023-04-25T06:43:36.405Z,17.40
2023-04-25T06:44:44.969Z,17.60
2023-04-25T06:45:49.782Z,17.60
2023-04-25T06:46:52.976Z,17.60
2023-04-25T06:47:58.362Z,17.50
2023-04-25T06:49:01.995Z,17.50
2023-04-25T06:50:05.787Z,17.40
2023-04-25T06:51:09.696Z,17.30
2023-04-25T06:52:14.207Z,17.20
2023-04-25T06:53:16.823Z,17.00
2023-04-25T06:54:23.536Z,16.80
2023-04-25T06:55:36.401Z,16.60
2023-04-25T06:57:01.770Z,16.40
2023-04-25T06:58:04.512Z,16.10
2023-04-25T06:59:28.106Z,15.90
2023-04-25T07:00:31.311Z,15.70
2023-04-25T07:01:35.082Z,15.50
2023-04-25T07:02:41.506Z,15.40
2023-04-25T07:03:46.551Z,15.20
2023-04-25T07:04:56.346Z,15.00
2023-04-25T07:05:59.927Z,14.90
2023-04-25T07:07:04.496Z,14.70
2023-04-25T07:08:18.267Z,14.50
2023-04-25T07:09:20.725Z,14.40
2023-04-25T07:10:26.241Z,14.20
2023-04-25T07:11:29.594Z,14.10
2023-04-25T07:12:33.540Z,13.90
2023-04-25T07:13:37.418Z,13.80
2023-04-25T07:14:40.264Z,13.60
2023-04-25T07:15:45.631Z,13.40
2023-04-25T07:16:48.920Z,13.30
2023-04-25T07:17:52.804Z,13.00
2023-04-25T07:18:56.612Z,12.80
2023-04-25T07:19:59.914Z,12.50
2023-04-25T07:21:04.433Z,12.30
2023-04-25T07:22:09.865Z,12.00
2023-04-25T07:23:15.727Z,11.80
2023-04-25T07:24:18.829Z,11.60
2023-04-25T07:25:24.018Z,11.40
2023-04-25T07:26:26.781Z,11.20
2023-04-25T07:27:48.650Z,11.00
2023-04-25T07:28:55.556Z,10.80
2023-04-25T07:29:59.106Z,10.60
2023-04-25T07:31:02.465Z,10.50
2023-04-25T07:32:05.631Z,10.40
2023-04-25T07:33:09.180Z,10.30
2023-04-25T07:34:13.002Z,10.30
2023-04-25T07:35:17.016Z,10.20
2023-04-25T07:36:21.968Z,10.10
2023-04-25T07:37:24.816Z,10.10
2023-04-25T07:38:39.276Z,10.10
2023-04-25T07:39:43.488Z,10.00
2023-04-25T07:40:47.719Z,10.00
2023-04-25T07:41:50.255Z,10.00
2023-04-25T07:43:00.689Z,10.00
2023-04-25T07:44:12.702Z,10.00
2023-04-25T07:45:17.623Z,10.00
2023-04-25T07:46:21.160Z,10.10
2023-04-25T07:47:24.847Z,10.20
2023-04-25T07:48:29.467Z,10.40
2023-04-25T07:49:34.256Z,10.60
2023-04-25T07:50:37.741Z,10.90
2023-04-25T07:51:42.026Z,11.30
2023-04-25T07:52:47.868Z,11.70
2023-04-25T07:53:59.070Z,12.20
2023-04-25T07:55:01.863Z,12.70
2023-04-25T07:56:16.090Z,13.20
2023-04-25T07:57:21.270Z,13.80
2023-04-25T07:58:26.045Z,14.40
2023-04-25T07:59:34.134Z,15.00
2023-04-25T08:00:38.893Z,15.80
2023-04-25T08:02:08.410Z,16.50
2023-04-25T08:03:11.465Z,17.60
2023-04-25T08:04:16.300Z,18.30
2023-04-25T08:05:38.081Z,19.00
2023-04-25T08:06:43.534Z,19.90
2023-04-25T08:07:52.582Z,20.50
2023-04-25T08:08:56.306Z,21.20
2023-04-25T08:10:05.655Z,21.80
2023-04-25T08:11:11.575Z,22.40
2023-04-25T08:12:14.067Z,23.00
2023-04-25T08:13:17.704Z,23.50
2023-04-25T08:14:21.110Z,24.00
2023-04-25T08:15:26.457Z,24.50
2023-04-25T08:16:29.637Z,25.00
2023-04-25T08:18:37.818Z,25.80
2023-04-25T08:19:40.381Z,26.20
2023-04-25T08:20:47.446Z,26.50
2023-04-25T08:21:52.935Z,26.70
2023-04-25T08:23:03.057Z,26.70
2023-04-25T08:24:18.452Z,26.80
2023-04-25T08:25:21.169Z,26.90
2023-04-25T08:26:24.931Z,27.20
2023-04-25T08:27:27.925Z,27.40
2023-04-25T08:28:31.452Z,27.70
2023-04-25T08:29:37.507Z,27.90
2023-04-25T08:30:39.977Z,28.10
2023-04-25T08:31:45.133Z,28.40
2023-04-25T08:32:49.068Z,28.70
2023-04-25T08:34:22.205Z,28.90
2023-04-25T08:35:25.878Z,29.20
2023-04-25T08:36:39.371Z,29.40
2023-04-25T08:37:55.837Z,29.60
2023-04-25T08:38:59.375Z,29.90
2023-04-25T08:40:03.937Z,30.10
2023-04-25T08:41:33.878Z,30.30
2023-04-25T08:42:39.279Z,30.60
2023-04-25T08:43:45.861Z,30.70
2023-04-25T08:44:50.346Z,30.50
2023-04-25T08:45:56.409Z,30.40
2023-04-25T08:47:32.014Z,30.30
2023-04-25T08:48:35.923Z,30.00
2023-04-25T08:49:45.762Z,29.70
2023-04-25T08:50:54.621Z,29.20
2023-04-25T08:52:01.368Z,28.60
2023-04-25T08:53:10.791Z,27.90
2023-04-25T08:54:30.810Z,27.20
2023-04-25T08:55:43.101Z,26.40
2023-04-25T08:56:48.722Z,25.40
2023-04-25T08:57:52.891Z,24.60
2023-04-25T08:58:58.197Z,24.10
2023-04-25T09:00:02.113Z,23.90
2023-04-25T09:01:06.842Z,23.90
2023-04-25T09:02:19.788Z,24.10
2023-04-25T09:03:26.099Z,24.30
2023-04-25T09:04:28.754Z,24.70
2023-04-25T09:05:32.319Z,25.10
2023-04-25T09:06:35.910Z,25.60
2023-04-25T09:07:41.084Z,26.00
2023-04-25T09:08:43.808Z,26.50
2023-04-25T09:09:47.474Z,26.90
2023-04-25T09:10:54.284Z,27.40
2023-04-25T09:11:58.010Z,27.90
2023-04-25T09:13:07.669Z,28.30
2023-04-25T09:14:26.720Z,28.80
2023-04-25T09:15:51.078Z,29.30
2023-04-25T09:17:09.978Z,29.60
2023-04-25T09:18:29.862Z,29.50
2023-04-25T09:19:40.151Z,29.10
2023-04-25T09:21:01.937Z,28.70
2023-04-25T09:22:09.741Z,28.30
2023-04-25T09:23:16.607Z,28.00
2023-04-25T09:24:30.909Z,27.80
2023-04-25T09:25:39.827Z,27.50
2023-04-25T09:26:44.842Z,27.00
2023-04-25T09:27:57.066Z,26.60
2023-04-25T09:29:08.985Z,26.10
2023-04-25T09:30:17.466Z,25.60
2023-04-25T09:31:47.273Z,25.10
2023-04-25T09:32:51.480Z,24.40
2023-04-25T09:34:02.841Z,23.90
2023-04-25T09:35:25.329Z,23.30
2023-04-25T09:36:30.070Z,22.70
2023-04-25T09:37:58.197Z,22.00
2023-04-25T09:39:22.510Z,21.20
2023-04-25T09:40:40.803Z,20.50
2023-04-25T09:41:56.894Z,19.90
2023-04-25T09:43:01.484Z,19.30
2023-04-25T09:44:05.031Z,18.80
2023-04-25T09:45:14.470Z,18.30
2023-04-25T09:46:19.665Z,17.80
2023-04-25T09:47:29.497Z,17.50
2023-04-25T09:48:32.269Z,17.10
2023-04-25T09:49:44.165Z,16.80
2023-04-25T09:51:14.675Z,16.50
2023-04-25T09:52:25.192Z,16.10
2023-04-25T09:53:54.933Z,15.80
2023-04-25T09:55:10.574Z,15.50
2023-04-25T09:56:14.310Z,15.30
2023-04-25T09:57:20.491Z,15.20
2023-04-25T09:58:27.023Z,15.10
2023-04-25T09:59:32.647Z,15.00
2023-04-25T10:00:36.276Z,14.90
2023-04-25T10:01:54.600Z,14.80
2023-04-25T10:03:08.654Z,14.80
2023-04-25T10:04:36.500Z,14.80
2023-04-25T10:05:51.036Z,14.80
2023-04-25T10:06:58.259Z,14.80
2023-04-25T10:08:03.919Z,14.90
2023-04-25T10:09:08.823Z,15.00
2023-04-25T10:10:15.822Z,15.10
2023-04-25T10:11:19.247Z,15.20
2023-04-25T10:12:22.662Z,15.30
2023-04-25T10:13:25.958Z,15.40
2023-04-25T10:14:29.922Z,15.60
2023-04-25T10:15:39.613Z,15.70
2023-04-25T10:16:44.657Z,15.90
2023-04-25T10:17:48.119Z,16.20
2023-04-25T10:18:52.299Z,16.40
2023-04-25T10:19:55.457Z,16.70
2023-04-25T10:21:02.854Z,17.00
2023-04-25T10:22:10.921Z,17.20
2023-04-25T10:23:17.959Z,17.40
2023-04-25T10:24:22.568Z,17.70
2023-04-25T10:25:26.448Z,18.00
2023-04-25T10:26:31.265Z,18.30
2023-04-25T10:27:34.693Z,18.50
2023-04-25T10:29:00.793Z,18.90
2023-04-25T10:30:06.210Z,19.30
2023-04-25T10:31:09.602Z,19.70
2023-04-25T10:32:13.120Z,20.00
2023-04-25T10:33:19.213Z,20.30
2023-04-25T10:34:39.265Z,20.70
2023-04-25T10:35:42.715Z,21.20
2023-04-25T10:36:52.302Z,21.80
2023-04-25T10:38:05.369Z,22.40
2023-04-25T10:39:09.945Z,23.10
2023-04-25T10:40:14.881Z,23.60
2023-04-25T10:41:20.786Z,24.20
2023-04-25T10:42:24.092Z,24.70
2023-04-25T10:43:38.828Z,25.00
2023-04-25T10:44:42.257Z,25.30
2023-04-25T10:45:54.309Z,25.30
2023-04-25T10:46:59.176Z,25.20
2023-04-25T10:48:02.650Z,25.10
2023-04-25T10:49:06.393Z,24.90
2023-04-25T10:50:10.506Z,24.60
2023-04-25T10:51:18.984Z,24.40
2023-04-25T10:52:30.790Z,24.10
2023-04-25T10:53:35.186Z,23.80
2023-04-25T10:54:44.327Z,23.40
2023-04-25T10:55:53.899Z,23.10
2023-04-25T10:57:01.290Z,22.70
2023-04-25T10:58:05.711Z,22.30
2023-04-25T10:59:11.216Z,22.10
2023-04-25T11:00:17.600Z,21.90
2023-04-25T11:01:23.955Z,21.80
2023-04-25T11:02:29.332Z,21.90
2023-04-25T11:03:33.640Z,22.00
2023-04-25T11:04:37.820Z,22.20
2023-04-25T11:05:55.219Z,22.30
2023-04-25T11:07:10.051Z,22.40
2023-04-25T11:08:17.334Z,22.50
2023-04-25T11:09:19.893Z,22.60
2023-04-25T11:10:28.356Z,22.80
2023-04-25T11:11:31.381Z,22.90
2023-04-25T11:12:36.250Z,23.10
2023-04-25T11:13:38.675Z,23.40
2023-04-25T11:14:42.243Z,23.50
2023-04-25T11:15:45.670Z,23.70
2023-04-25T11:16:48.045Z,23.80
2023-04-25T11:17:53.922Z,24.00
2023-04-25T11:18:59.472Z,24.20
2023-04-25T11:20:03.612Z,24.30
2023-04-25T11:21:07.271Z,24.50
2023-04-25T11:22:12.175Z,24.70
2023-04-25T11:23:15.577Z,24.90
2023-04-25T11:24:18.226Z,25.10
2023-04-25T11:25:25.088Z,25.30
2023-04-25T11:26:27.587Z,25.60
2023-04-25T11:27:30.964Z,25.80
2023-04-25T11:28:35.841Z,26.00
2023-04-25T11:29:40.894Z,26.10
2023-04-25T11:30:51.388Z,26.20
2023-04-25T11:31:57.129Z,26.10
2023-04-25T11:33:00.908Z,26.00
2023-04-25T11:34:04.529Z,25.80
2023-04-25T11:35:08.288Z,25.60
2023-04-25T11:36:12.590Z,25.30
2023-04-25T11:37:17.083Z,25.00
2023-04-25T11:38:19.487Z,24.70
2023-04-25T11:39:23.387Z,24.40
2023-04-25T11:40:25.898Z,24.00
2023-04-25T11:41:29.264Z,23.60
2023-04-25T11:42:32.015Z,23.10
2023-04-25T11:43:36.713Z,22.70
2023-04-25T11:44:41.656Z,22.30
2023-04-25T11:45:49.978Z,21.90
2023-04-25T11:46:52.361Z,21.40
2023-04-25T11:47:55.822Z,21.00
2023-04-25T11:48:59.037Z,20.60
2023-04-25T11:50:03.568Z,20.20
2023-04-25T11:51:06.225Z,19.80
2023-04-25T11:52:09.940Z,19.40
2023-04-25T11:53:14.074Z,18.90
2023-04-25T11:54:17.127Z,18.60
2023-04-25T11:55:22.809Z,18.20
2023-04-25T11:56:26.266Z,17.90
2023-04-25T11:57:28.743Z,17.50
2023-04-25T11:58:32.325Z,17.20
2023-04-25T11:59:37.518Z,17.00
2023-04-25T12:00:50.535Z,16.60
2023-04-25T12:01:55.033Z,16.40
2023-04-25T12:03:00.075Z,16.20
2023-04-25T12:04:15.006Z,16.00
2023-04-25T12:06:28.641Z,15.70
2023-04-25T12:07:32.176Z,15.60
2023-04-25T12:08:35.613Z,15.50
2023-04-25T12:09:37.885Z,15.50
2023-04-25T12:10:43.283Z,15.50
2023-04-25T12:11:47.226Z,15.60
2023-04-25T12:12:51.049Z,15.70
2023-04-25T12:13:54.342Z,15.90
2023-04-25T12:14:59.192Z,16.10
2023-04-25T12:16:03.171Z,16.40
2023-04-25T12:17:08.860Z,16.60
2023-04-25T12:18:12.734Z,16.90
2023-04-25T12:19:16.439Z,17.30
2023-04-25T12:20:24.622Z,17.60
2023-04-25T12:21:30.033Z,18.00
2023-04-25T12:22:33.988Z,18.40
2023-04-25T12:23:42.703Z,18.60
2023-04-25T12:24:46.800Z,18.80
2023-04-25T12:25:50.242Z,18.90
2023-04-25T12:26:55.604Z,18.90
2023-04-25T12:28:15.733Z,18.90
2023-04-25T12:29:21.177Z,18.90
2023-04-25T12:30:25.965Z,18.80
2023-04-25T12:31:28.392Z,18.70
2023-04-25T12:32:31.953Z,18.60
2023-04-25T12:33:36.339Z,18.50
2023-04-25T12:34:39.788Z,18.40
2023-04-25T12:35:44.242Z,18.40
2023-04-25T12:36:51.460Z,18.40
2023-04-25T12:37:54.040Z,18.40
2023-04-25T12:38:57.624Z,18.50
2023-04-25T12:40:01.097Z,18.50
2023-04-25T12:41:03.538Z,18.50
2023-04-25T12:42:09.638Z,18.40
2023-04-25T12:43:12.379Z,18.40
2023-04-25T12:44:16.228Z,18.40
2023-04-25T12:45:19.555Z,18.40
2023-04-25T12:46:23.965Z,18.50
2023-04-25T12:47:28.168Z,18.60
2023-04-25T12:48:30.728Z,18.80
2023-04-25T12:49:34.293Z,18.90
2023-04-25T12:50:36.682Z,19.10
2023-04-25T12:51:40.154Z,19.30
2023-04-25T12:52:43.549Z,19.50
2023-04-25T12:53:45.954Z,19.70
2023-04-25T12:54:49.257Z,19.90
2023-04-25T12:55:52.425Z,20.10
2023-04-25T12:56:55.957Z,20.30
2023-04-25T12:57:58.377Z,20.50
2023-04-25T12:59:02.056Z,20.60
2023-04-25T13:00:09.001Z,20.80
2023-04-25T13:01:13.101Z,20.90
2023-04-25T13:02:17.872Z,21.00
2023-04-25T13:03:20.713Z,21.10
2023-04-25T13:04:24.568Z,21.20
2023-04-25T13:05:27.137Z,21.20
2023-04-25T13:06:31.064Z,21.30
2023-04-25T13:07:35.901Z,21.30
2023-04-25T13:08:39.243Z,21.30
2023-04-25T13:09:42.630Z,21.30
2023-04-25T13:10:44.983Z,21.40
2023-04-25T13:11:48.439Z,21.40
2023-04-25T13:12:52.170Z,21.40
2023-04-25T13:13:54.921Z,21.50
2023-04-25T13:14:58.288Z,21.50
2023-04-25T13:16:00.693Z,21.60
2023-04-25T13:17:05.762Z,21.60
2023-04-25T13:18:09.853Z,21.50
2023-04-25T13:19:13.669Z,21.50
2023-04-25T13:20:16.751Z,21.40
2023-04-25T13:21:20.123Z,21.20
2023-04-25T13:22:22.515Z,21.10
2023-04-25T13:23:27.682Z,20.90
2023-04-25T13:24:31.094Z,20.70
2023-04-25T13:25:33.467Z,20.50
2023-04-25T13:26:36.943Z,20.30
2023-04-25T13:27:41.344Z,20.10
2023-04-25T13:28:45.041Z,20.10
2023-04-25T13:29:47.640Z,20.00
2023-04-25T13:30:51.115Z,20.00
2023-04-25T13:31:54.696Z,19.90
2023-04-25T13:32:58.144Z,19.90
2023-04-25T13:34:03.382Z,19.90
2023-04-25T13:35:10.462Z,19.90
2023-04-25T13:36:14.270Z,19.90
2023-04-25T13:37:16.734Z,19.90
2023-04-25T13:38:20.097Z,19.90
2023-04-25T13:39:23.377Z,19.90
2023-04-25T13:40:27.806Z,19.90
2023-04-25T13:41:31.341Z,19.80
2023-04-25T13:42:33.814Z,19.70
2023-04-25T13:43:37.312Z,19.50
2023-04-25T13:44:41.341Z,19.30
2023-04-25T13:45:44.810Z,19.10
2023-04-25T13:46:47.897Z,18.90
2023-04-25T13:47:52.050Z,18.70
2023-04-25T13:48:59.700Z,18.50
2023-04-25T13:50:09.617Z,18.30
2023-04-25T13:51:13.003Z,18.10
2023-04-25T13:52:15.650Z,17.90
2023-04-25T13:53:19.090Z,17.80
2023-04-25T13:54:21.619Z,17.70
2023-04-25T13:55:25.058Z,17.50
2023-04-25T13:56:29.192Z,17.50
2023-04-25T13:57:33.249Z,17.50
2023-04-25T13:58:36.819Z,17.50
2023-04-25T13:59:41.660Z,17.50
2023-04-25T14:00:46.920Z,17.50
2023-04-25T14:01:50.846Z,17.50
2023-04-25T14:02:53.293Z,17.50
2023-04-25T14:03:56.961Z,17.50
2023-04-25T14:04:59.442Z,17.60
2023-04-25T14:06:05.524Z,17.50
2023-04-25T14:07:09.463Z,17.50
2023-04-25T14:08:12.228Z,17.50
2023-04-25T14:09:16.719Z,17.40
2023-04-25T14:10:19.260Z,17.40
2023-04-25T14:11:22.751Z,17.30
2023-04-25T14:12:25.867Z,17.20
2023-04-25T14:13:29.334Z,17.10
2023-04-25T14:14:31.991Z,17.00
2023-04-25T14:15:35.992Z,16.90
2023-04-25T14:16:38.668Z,16.80
2023-04-25T14:17:42.112Z,16.70
2023-04-25T14:18:44.535Z,16.60
2023-04-25T14:19:49.148Z,16.50
2023-04-25T14:20:52.477Z,16.40
2023-04-25T14:21:56.410Z,16.40
2023-04-25T14:23:00.454Z,16.30
2023-04-25T14:24:03.085Z,16.20
2023-04-25T14:25:07.839Z,16.20
2023-04-25T14:26:13.538Z,16.20
2023-04-25T14:27:15.976Z,16.20
2023-04-25T14:28:19.304Z,16.20
2023-04-25T14:29:21.685Z,16.20
2023-04-25T14:30:25.391Z,16.20
2023-04-25T14:31:28.216Z,16.10
2023-04-25T14:32:33.109Z,16.10